sensor_id;sensor_type;location;lat;lon;timestamp;pressure;altitude;pressure_sealevel;temperature;humidity
31096;BME280;17749;51.962;8.560;2023-02-01T06:02:32;99936.00;;;4.13;100.00
31096;BME280;17749;51.962;8.560;2023-02-01T06:04:59;99929.88;;;4.11;100.00
31096;BME280;17749;51.962;8.560;2023-02-01T06:07:25;99921.91;;;4.15;100.00
31096;BME280;17749;51.962;8.560;2023-02-01T06:09:55;99939.44;;;4.18;100.00
31096;BME280;17749;51.962;8.560;2023-02-01T06:12:22;99939.47;;;4.15;100.00
31096;BME280;17749;51.962;8.560;2023-02-01T06:14:49;99928.88;;;4.18;100.00
31096;BME280;17749;51.962;8.560;2023-02-01T06:17:16;99925.31;;;4.22;100.00
31096;BME280;17749;51.962;8.560;2023-02-01T06:19:43;99916.56;;;4.20;100.00
31096;BME280;17749;51.962;8.560;2023-02-01T06:22:11;99908.59;;;4.23;100.00
31096;BME280;17749;51.962;8.560;2023-02-01T06:24:38;99904.22;;;4.22;100.00
31096;BME280;17749;51.962;8.560;2023-02-01T06:27:05;99925.25;;;4.25;100.00
31096;BME280;17749;51.962;8.560;2023-02-01T06:29:32;99933.16;;;4.25;100.00
31096;BME280;17749;51.962;8.560;2023-02-01T06:31:59;99942.81;;;4.26;100.00
31096;BME280;17749;51.962;8.560;2023-02-01T06:34:26;99947.19;;;4.27;100.00
31096;BME280;17749;51.962;8.560;2023-02-01T06:36:53;99955.06;;;4.29;100.00
31096;BME280;17749;51.962;8.560;2023-02-01T06:39:21;99954.19;;;4.30;100.00
31096;BME280;17749;51.962;8.560;2023-02-01T06:41:48;99952.41;;;4.30;100.00
31096;BME280;17749;51.962;8.560;2023-02-01T06:44:16;99948.06;;;4.26;100.00
31096;BME280;17749;51.962;8.560;2023-02-01T06:46:43;99946.28;;;4.28;100.00
31096;BME280;17749;51.962;8.560;2023-02-01T06:49:10;99950.63;;;4.31;100.00
31096;BME280;17749;51.962;8.560;2023-02-01T06:51:37;99953.28;;;4.29;100.00
31096;BME280;17749;51.962;8.560;2023-02-01T06:54:04;99947.13;;;4.30;100.00
31096;BME280;17749;51.962;8.560;2023-02-01T06:56:31;99957.69;;;4.30;100.00
31096;BME280;17749;51.962;8.560;2023-02-01T06:58:58;99954.25;;;4.25;100.00
31096;BME280;17749;51.962;8.560;2023-02-01T07:01:25;99963.75;;;4.35;100.00
31096;BME280;17749;51.962;8.560;2023-02-01T07:03:52;99965.47;;;4.36;100.00
31096;BME280;17749;51.962;8.560;2023-02-01T07:06:19;99978.72;;;4.32;100.00
31096;BME280;17749;51.962;8.560;2023-02-01T07:08:47;99976.03;;;4.36;100.00
31096;BME280;17749;51.962;8.560;2023-02-01T07:11:15;99976.03;;;4.36;100.00
31096;BME280;17749;51.962;8.560;2023-02-01T07:13:42;99968.97;;;4.38;100.00
31096;BME280;17749;51.962;8.560;2023-02-01T07:16:15;99970.69;;;4.39;100.00
31096;BME280;17749;51.962;8.560;2023-02-01T07:18:43;99966.28;;;4.42;100.00
31096;BME280;17749;51.962;8.560;2023-02-01T07:21:10;99969.78;;;4.42;100.00
31096;BME280;17749;51.962;8.560;2023-02-01T07:23:38;99980.38;;;4.41;100.00
31096;BME280;17749;51.962;8.560;2023-02-01T07:26:06;99998.81;;;4.41;100.00
31096;BME280;17749;51.962;8.560;2023-02-01T07:28:35;100004.09;;;4.41;100.00
31096;BME280;17749;51.962;8.560;2023-02-01T07:31:07;99985.63;;;4.41;100.00
31096;BME280;17749;51.962;8.560;2023-02-01T07:33:35;99982.16;;;4.37;100.00
31096;BME280;17749;51.962;8.560;2023-02-01T07:36:04;99997.91;;;4.43;100.00
31096;BME280;17749;51.962;8.560;2023-02-01T07:38:31;99995.34;;;4.38;100.00
31096;BME280;17749;51.962;8.560;2023-02-01T07:41:00;100010.22;;;4.41;100.00
31096;BME280;17749;51.962;8.560;2023-02-01T07:43:28;100019.81;;;4.47;100.00
31096;BME280;17749;51.962;8.560;2023-02-01T07:45:55;100006.63;;;4.45;100.00
31096;BME280;17749;51.962;8.560;2023-02-01T07:48:24;99995.34;;;4.38;100.00
31096;BME280;17749;51.962;8.560;2023-02-01T07:51:18;100005.75;;;4.45;100.00
31096;BME280;17749;51.962;8.560;2023-02-01T07:53:45;100008.38;;;4.46;100.00
31096;BME280;17749;51.962;8.560;2023-02-01T07:56:17;100021.53;;;4.48;100.00
31096;BME280;17749;51.962;8.560;2023-02-01T07:58:53;100018.06;;;4.46;100.00
31096;BME280;17749;51.962;8.560;2023-02-01T08:01:23;100032.91;;;4.51;100.00
31096;BME280;17749;51.962;8.560;2023-02-01T08:03:53;100019.81;;;4.47;100.00
31096;BME280;17749;51.962;8.560;2023-02-01T08:06:21;100013.72;;;4.43;100.00
31096;BME280;17749;51.962;8.560;2023-02-01T08:08:49;100023.34;;;4.46;100.00
31096;BME280;17749;51.962;8.560;2023-02-01T08:11:17;100027.72;;;4.45;100.00
31096;BME280;17749;51.962;8.560;2023-02-01T08:13:44;100030.41;;;4.44;100.00
31096;BME280;17749;51.962;8.560;2023-02-01T08:16:13;100023.34;;;4.46;100.00
31096;BME280;17749;51.962;8.560;2023-02-01T08:18:40;100026.78;;;4.51;100.00
31096;BME280;17749;51.962;8.560;2023-02-01T08:21:09;100032.00;;;4.54;100.00
31096;BME280;17749;51.962;8.560;2023-02-01T08:23:38;100035.50;;;4.53;100.00
31096;BME280;17749;51.962;8.560;2023-02-01T08:26:14;100034.59;;;4.55;100.00
31096;BME280;17749;51.962;8.560;2023-02-01T08:28:50;100032.84;;;4.56;100.00
31096;BME280;17749;51.962;8.560;2023-02-01T08:31:19;100031.94;;;4.57;100.00
31096;BME280;17749;51.962;8.560;2023-02-01T08:33:51;100029.22;;;4.61;100.00
31096;BME280;17749;51.962;8.560;2023-02-01T08:36:18;100024.72;;;4.68;100.00
31096;BME280;17749;51.962;8.560;2023-02-01T08:38:46;100022.00;;;4.71;100.00
31096;BME280;17749;51.962;8.560;2023-02-01T08:41:17;100029.09;;;4.69;100.00
31096;BME280;17749;51.962;8.560;2023-02-01T08:43:45;100036.09;;;4.72;100.00
31096;BME280;17749;51.962;8.560;2023-02-01T08:46:12;100019.41;;;4.70;100.00
31096;BME280;17749;51.962;8.560;2023-02-01T08:48:39;100021.06;;;4.75;100.00
31096;BME280;17749;51.962;8.560;2023-02-01T08:51:11;100029.00;;;4.75;100.00
31096;BME280;17749;51.962;8.560;2023-02-01T08:53:38;100032.47;;;4.77;100.00
31096;BME280;17749;51.962;8.560;2023-02-01T08:56:12;100025.47;;;4.75;100.00
31096;BME280;17749;51.962;8.560;2023-02-01T08:58:39;100023.69;;;4.77;100.00
31096;BME280;17749;51.962;8.560;2023-02-01T09:01:09;100027.13;;;4.80;100.00
31096;BME280;17749;51.962;8.560;2023-02-01T09:03:37;100034.06;;;4.86;100.00
31096;BME280;17749;51.962;8.560;2023-02-01T09:06:10;100033.03;;;4.95;100.00
31096;BME280;17749;51.962;8.560;2023-02-01T09:08:38;100021.59;;;4.94;100.00
31096;BME280;17749;51.962;8.560;2023-02-01T09:11:12;100020.75;;;4.94;100.00
31096;BME280;17749;51.962;8.560;2023-02-01T09:13:39;100035.59;;;4.99;100.00
31096;BME280;17749;51.962;8.560;2023-02-01T09:16:06;100024.91;;;5.05;100.00
31096;BME280;17749;51.962;8.560;2023-02-01T09:18:33;100008.13;;;5.08;100.00
31096;BME280;17749;51.962;8.560;2023-02-01T09:21:05;100016.03;;;5.10;100.00
31096;BME280;17749;51.962;8.560;2023-02-01T09:23:34;100010.75;;;5.10;100.00
31096;BME280;17749;51.962;8.560;2023-02-01T09:26:05;100008.81;;;5.19;100.00
31096;BME280;17749;51.962;8.560;2023-02-01T09:28:32;100006.13;;;5.22;100.00
31096;BME280;17749;51.962;8.560;2023-02-01T09:31:03;100014.97;;;5.18;100.00
31096;BME280;17749;51.962;8.560;2023-02-01T09:33:31;100008.91;;;5.15;100.00
31096;BME280;17749;51.962;8.560;2023-02-01T09:35:59;100023.75;;;5.20;100.00
31096;BME280;17749;51.962;8.560;2023-02-01T09:38:27;100007.91;;;5.20;100.00
31096;BME280;17749;51.962;8.560;2023-02-01T09:40:55;100001.75;;;5.20;100.00
31096;BME280;17749;51.962;8.560;2023-02-01T09:46:21;100010.47;;;5.25;100.00
31096;BME280;17749;51.962;8.560;2023-02-01T09:48:53;100000.63;;;5.32;100.00
31096;BME280;17749;51.962;8.560;2023-02-01T09:51:23;100006.06;;;5.25;100.00
31096;BME280;17749;51.962;8.560;2023-02-01T09:54:01;100007.84;;;5.25;100.00
31096;BME280;17749;51.962;8.560;2023-02-01T09:56:56;100006.06;;;5.25;100.00
31096;BME280;17749;51.962;8.560;2023-02-01T09:59:41;100013.06;;;5.26;100.00
31096;BME280;17749;51.962;8.560;2023-02-01T10:02:17;100019.16;;;5.30;100.00
31096;BME280;17749;51.962;8.560;2023-02-01T10:04:46;100002.41;;;5.31;100.00
31096;BME280;17749;51.962;8.560;2023-02-01T10:10:03;100002.34;;;5.34;100.00
31096;BME280;17749;51.962;8.560;2023-02-01T10:15:27;100007.38;;;5.48;100.00
31096;BME280;17749;51.962;8.560;2023-02-01T10:18:00;99998.38;;;5.55;100.00
31096;BME280;17749;51.962;8.560;2023-02-01T10:26:20;99991.25;;;5.60;100.00
31096;BME280;17749;51.962;8.560;2023-02-01T10:28:52;99983.06;;;5.71;100.00
31096;BME280;17749;51.962;8.560;2023-02-01T10:42:57;99978.81;;;5.65;100.00
31096;BME280;17749;51.962;8.560;2023-02-01T10:45:26;99991.22;;;5.62;100.00
31096;BME280;17749;51.962;8.560;2023-02-01T10:47:56;99986.00;;;5.59;100.00
31096;BME280;17749;51.962;8.560;2023-02-01T10:50:37;99977.22;;;5.58;100.00
31096;BME280;17749;51.962;8.560;2023-02-01T10:55:53;99979.69;;;5.66;100.00
31096;BME280;17749;51.962;8.560;2023-02-01T10:58:31;99992.84;;;5.69;100.00
31096;BME280;17749;51.962;8.560;2023-02-01T11:01:03;99989.25;;;5.71;100.00
31096;BME280;17749;51.962;8.560;2023-02-01T11:03:34;99982.13;;;5.74;100.00
31096;BME280;17749;51.962;8.560;2023-02-01T11:06:19;99976.81;;;5.77;100.00
31096;BME280;17749;51.962;8.560;2023-02-01T11:08:50;99966.34;;;5.70;100.00
31096;BME280;17749;51.962;8.560;2023-02-01T11:11:19;99966.44;;;5.67;100.00
31096;BME280;17749;51.962;8.560;2023-02-01T11:14:01;99958.56;;;5.64;100.00
31096;BME280;17749;51.962;8.560;2023-02-01T11:16:38;99956.78;;;5.66;100.00
31096;BME280;17749;51.962;8.560;2023-02-01T11:19:06;99950.59;;;5.67;100.00
31096;BME280;17749;51.962;8.560;2023-02-01T11:21:34;99951.50;;;5.66;100.00
31096;BME280;17749;51.962;8.560;2023-02-01T11:24:04;99944.44;;;5.65;100.00
31096;BME280;17749;51.962;8.560;2023-02-01T11:26:32;99937.47;;;5.63;100.00
31096;BME280;17749;51.962;8.560;2023-02-01T11:29:03;99940.06;;;5.66;100.00
31096;BME280;17749;51.962;8.560;2023-02-01T11:31:32;99922.50;;;5.63;100.00
31096;BME280;17749;51.962;8.560;2023-02-01T11:34:21;99923.22;;;5.70;100.00
31096;BME280;17749;51.962;8.560;2023-02-01T11:36:50;99916.16;;;5.70;100.00
31096;BME280;17749;51.962;8.560;2023-02-01T11:39:24;99920.66;;;5.67;100.00
31096;BME280;17749;51.962;8.560;2023-02-01T11:42:15;99909.22;;;5.66;100.00
31096;BME280;17749;51.962;8.560;2023-02-01T11:44:44;99906.66;;;5.63;100.00
31096;BME280;17749;51.962;8.560;2023-02-01T11:49:58;99895.34;;;5.57;100.00
31096;BME280;17749;51.962;8.560;2023-02-01T11:55:44;99894.41;;;5.59;100.00
31096;BME280;17749;51.962;8.560;2023-02-01T11:58:31;99877.81;;;5.54;100.00
31096;BME280;17749;51.962;8.560;2023-02-01T12:01:28;99884.19;;;5.44;100.00
31096;BME280;17749;51.962;8.560;2023-02-01T12:04:26;99873.00;;;5.33;100.00
31096;BME280;17749;51.962;8.560;2023-02-01T12:07:12;99877.38;;;5.34;100.00
31096;BME280;17749;51.962;8.560;2023-02-01T12:09:54;99874.81;;;5.31;100.00
31096;BME280;17749;51.962;8.560;2023-02-01T12:23:39;99874.13;;;5.22;100.00
31096;BME280;17749;51.962;8.560;2023-02-01T12:34:29;99854.34;;;5.00;100.00
31096;BME280;17749;51.962;8.560;2023-02-01T12:37:20;99847.38;;;4.97;100.00
31096;BME280;17749;51.962;8.560;2023-02-01T12:40:21;99841.22;;;4.97;100.00
31096;BME280;17749;51.962;8.560;2023-02-01T12:45:58;99853.72;;;4.89;100.00
31096;BME280;17749;51.962;8.560;2023-02-01T12:51:20;99843.09;;;4.92;100.00
31096;BME280;17749;51.962;8.560;2023-02-01T12:53:56;99842.38;;;4.85;100.00
31096;BME280;17749;51.962;8.560;2023-02-01T12:56:30;99846.09;;;4.75;100.00
31096;BME280;17749;51.962;8.560;2023-02-01T12:59:04;99840.88;;;4.72;100.00
31096;BME280;17749;51.962;8.560;2023-02-01T13:02:04;99843.53;;;4.72;100.00
31096;BME280;17749;51.962;8.560;2023-02-01T13:07:19;99827.72;;;4.70;100.00
31096;BME280;17749;51.962;8.560;2023-02-01T13:09:52;99826.88;;;4.68;100.00
31096;BME280;17749;51.962;8.560;2023-02-01T13:12:30;99823.47;;;4.63;100.00
31096;BME280;17749;51.962;8.560;2023-02-01T13:15:13;99839.28;;;4.65;100.00
31096;BME280;17749;51.962;8.560;2023-02-01T13:17:41;99819.09;;;4.62;100.00
31096;BME280;17749;51.962;8.560;2023-02-01T13:23:10;99822.44;;;4.70;100.00
31096;BME280;17749;51.962;8.560;2023-02-01T13:25:48;99817.16;;;4.70;100.00
31096;BME280;17749;51.962;8.560;2023-02-01T13:28:40;99817.03;;;4.76;100.00
31096;BME280;17749;51.962;8.560;2023-02-01T13:43:19;99802.88;;;4.80;100.00
31096;BME280;17749;51.962;8.560;2023-02-01T13:45:51;99812.53;;;4.81;100.00
31096;BME280;17749;51.962;8.560;2023-02-01T13:48:26;99802.81;;;4.83;100.00
31096;BME280;17749;51.962;8.560;2023-02-01T13:50:58;99821.22;;;4.87;100.00
31096;BME280;17749;51.962;8.560;2023-02-01T13:53:31;99808.88;;;4.89;100.00
31096;BME280;17749;51.962;8.560;2023-02-01T13:56:19;99804.44;;;4.91;100.00
31096;BME280;17749;51.962;8.560;2023-02-01T13:58:47;99800.88;;;4.92;100.00
31096;BME280;17749;51.962;8.560;2023-02-01T14:03:55;99817.53;;;4.95;100.00
31096;BME280;17749;51.962;8.560;2023-02-01T14:11:41;99835.88;;;5.00;100.00
31096;BME280;17749;51.962;8.560;2023-02-01T14:21:51;99843.91;;;4.95;100.00
31096;BME280;17749;51.962;8.560;2023-02-01T14:24:29;99837.88;;;4.89;100.00
31096;BME280;17749;51.962;8.560;2023-02-01T14:29:32;99855.66;;;4.80;100.00
31096;BME280;17749;51.962;8.560;2023-02-01T14:34:56;99864.22;;;4.48;100.00
31096;BME280;17749;51.962;8.560;2023-02-01T14:37:28;99853.44;;;4.11;100.00
31096;BME280;17749;51.962;8.560;2023-02-01T14:50:35;99890.81;;;3.83;100.00
31096;BME280;17749;51.962;8.560;2023-02-01T14:53:17;99869.69;;;3.86;100.00
31096;BME280;17749;51.962;8.560;2023-02-01T14:55:54;99864.38;;;3.89;100.00
31096;BME280;17749;51.962;8.560;2023-02-01T15:01:28;99897.56;;;4.00;100.00
31096;BME280;17749;51.962;8.560;2023-02-01T15:06:39;99897.56;;;4.00;100.00
31096;BME280;17749;51.962;8.560;2023-02-01T15:09:21;99894.94;;;4.00;100.00
31096;BME280;17749;51.962;8.560;2023-02-01T15:12:29;99894.03;;;4.01;100.00
31096;BME280;17749;51.962;8.560;2023-02-01T15:15:21;99897.44;;;4.07;100.00
31096;BME280;17749;51.962;8.560;2023-02-01T15:17:54;99885.97;;;4.11;100.00
31096;BME280;17749;51.962;8.560;2023-02-01T15:20:23;99893.78;;;4.16;100.00
31096;BME280;17749;51.962;8.560;2023-02-01T15:25:45;99907.66;;;4.27;100.00
31096;BME280;17749;51.962;8.560;2023-02-01T15:28:14;99878.59;;;4.30;100.00
31096;BME280;17749;51.962;8.560;2023-02-01T15:30:55;99901.41;;;4.31;100.00
31096;BME280;17749;51.962;8.560;2023-02-01T15:33:23;99911.91;;;4.34;100.00
31096;BME280;17749;51.962;8.560;2023-02-01T15:35:55;99898.72;;;4.34;100.00
31096;BME280;17749;51.962;8.560;2023-02-01T15:43:43;99907.47;;;4.36;100.00
31096;BME280;17749;51.962;8.560;2023-02-01T15:46:14;99910.97;;;4.38;100.00
31096;BME280;17749;51.962;8.560;2023-02-01T15:48:56;99923.28;;;4.36;100.00
31096;BME280;17749;51.962;8.560;2023-02-01T15:51:25;99916.22;;;4.38;100.00
31096;BME280;17749;51.962;8.560;2023-02-01T15:54:05;99912.69;;;4.39;100.00
31096;BME280;17749;51.962;8.560;2023-02-01T15:56:36;99921.44;;;4.42;100.00
31096;BME280;17749;51.962;8.560;2023-02-01T15:59:17;99917.91;;;4.43;100.00
31096;BME280;17749;51.962;8.560;2023-02-01T16:01:45;99916.97;;;4.45;100.00
31096;BME280;17749;51.962;8.560;2023-02-01T16:04:25;99925.78;;;4.46;100.00
31096;BME280;17749;51.962;8.560;2023-02-01T16:06:59;99929.28;;;4.46;100.00
31096;BME280;17749;51.962;8.560;2023-02-01T16:09:51;99931.88;;;4.48;100.00
31096;BME280;17749;51.962;8.560;2023-02-01T16:12:26;99933.66;;;4.47;100.00
31096;BME280;17749;51.962;8.560;2023-02-01T16:14:55;99939.78;;;4.48;100.00
31096;BME280;17749;51.962;8.560;2023-02-01T16:17:21;99945.91;;;4.50;100.00
31096;BME280;17749;51.962;8.560;2023-02-01T16:19:48;99949.47;;;4.49;100.00
31096;BME280;17749;51.962;8.560;2023-02-01T16:22:15;99944.19;;;4.49;100.00
31096;BME280;17749;51.962;8.560;2023-02-01T16:24:42;99949.47;;;4.49;100.00
31096;BME280;17749;51.962;8.560;2023-02-01T16:27:09;99952.09;;;4.47;100.00
31096;BME280;17749;51.962;8.560;2023-02-01T16:29:36;99958.28;;;4.46;100.00
31096;BME280;17749;51.962;8.560;2023-02-01T16:32:03;99961.72;;;4.50;100.00
31096;BME280;17749;51.962;8.560;2023-02-01T16:34:31;99961.78;;;4.47;100.00
31096;BME280;17749;51.962;8.560;2023-02-01T16:36:59;99964.44;;;4.47;100.00
31096;BME280;17749;51.962;8.560;2023-02-01T16:39:27;99968.78;;;4.48;100.00
31096;BME280;17749;51.962;8.560;2023-02-01T16:41:55;99974.06;;;4.48;100.00
31096;BME280;17749;51.962;8.560;2023-02-01T16:44:24;99974.03;;;4.51;100.00
31096;BME280;17749;51.962;8.560;2023-02-01T16:46:51;99981.09;;;4.49;100.00
31096;BME280;17749;51.962;8.560;2023-02-01T16:49:25;99989.81;;;4.54;100.00
31096;BME280;17749;51.962;8.560;2023-02-01T16:51:56;99990.66;;;4.56;100.00
31096;BME280;17749;51.962;8.560;2023-02-01T16:54:24;99991.53;;;4.55;100.00
31096;BME280;17749;51.962;8.560;2023-02-01T16:56:51;99989.75;;;4.57;100.00
31096;BME280;17749;51.962;8.560;2023-02-01T16:59:19;99989.75;;;4.57;100.00
31096;BME280;17749;51.962;8.560;2023-02-01T17:01:46;99996.75;;;4.58;100.00
31096;BME280;17749;51.962;8.560;2023-02-01T17:04:13;99995.03;;;4.57;100.00
31096;BME280;17749;51.962;8.560;2023-02-01T17:06:40;99993.28;;;4.56;100.00
31096;BME280;17749;51.962;8.560;2023-02-01T17:09:08;99990.59;;;4.57;100.00
31096;BME280;17749;51.962;8.560;2023-02-01T17:11:36;99990.66;;;4.54;100.00
31096;BME280;17749;51.962;8.560;2023-02-01T17:14:19;100007.28;;;4.58;100.00
31096;BME280;17749;51.962;8.560;2023-02-01T17:16:47;99991.59;;;4.52;100.00
31096;BME280;17749;51.962;8.560;2023-02-01T17:19:18;99994.28;;;4.47;100.00
31096;BME280;17749;51.962;8.560;2023-02-01T17:21:52;100003.94;;;4.50;100.00
31096;BME280;17749;51.962;8.560;2023-02-01T17:24:27;99992.63;;;4.42;100.00
31096;BME280;17749;51.962;8.560;2023-02-01T17:27:04;100004.09;;;4.39;100.00
31096;BME280;17749;51.962;8.560;2023-02-01T17:29:31;100004.13;;;4.37;100.00
31096;BME280;17749;51.962;8.560;2023-02-01T17:31:58;100014.75;;;4.33;100.00
31096;BME280;17749;51.962;8.560;2023-02-01T17:34:27;100004.28;;;4.28;100.00
31096;BME280;17749;51.962;8.560;2023-02-01T17:36:54;100008.69;;;4.28;100.00
31096;BME280;17749;51.962;8.560;2023-02-01T17:39:21;100016.56;;;4.29;100.00
31096;BME280;17749;51.962;8.560;2023-02-01T17:42:11;100025.44;;;4.25;100.00
31096;BME280;17749;51.962;8.560;2023-02-01T17:44:38;100018.38;;;4.27;100.00
31096;BME280;17749;51.962;8.560;2023-02-01T17:47:04;100011.38;;;4.23;100.00
31096;BME280;17749;51.962;8.560;2023-02-01T17:49:32;100014.94;;;4.21;100.00
31096;BME280;17749;51.962;8.560;2023-02-01T17:52:01;100028.13;;;4.19;100.00
31096;BME280;17749;51.962;8.560;2023-02-01T17:54:28;100029.03;;;4.18;100.00
31096;BME280;17749;51.962;8.560;2023-02-01T17:56:55;100019.47;;;4.14;100.00
31096;BME280;17749;51.962;8.560;2023-02-01T17:59:26;100023.81;;;4.15;100.00
31096;BME280;17749;51.962;8.560;2023-02-01T18:01:53;100032.63;;;4.14;100.00
31096;BME280;17749;51.962;8.560;2023-02-01T18:04:26;100033.56;;;4.11;100.00
31096;BME280;17749;51.962;8.560;2023-02-01T18:06:53;100029.19;;;4.09;100.00
31096;BME280;17749;51.962;8.560;2023-02-01T18:09:20;100030.97;;;4.07;100.00
31096;BME280;17749;51.962;8.560;2023-02-01T18:11:47;100026.59;;;4.06;100.00
31096;BME280;17749;51.962;8.560;2023-02-01T18:14:16;100031.84;;;4.06;100.00
31096;BME280;17749;51.962;8.560;2023-02-01T18:16:43;100018.72;;;4.03;100.00
31096;BME280;17749;51.962;8.560;2023-02-01T18:19:10;100023.13;;;4.02;100.00
31096;BME280;17749;51.962;8.560;2023-02-01T18:21:40;100021.41;;;4.01;100.00
31096;BME280;17749;51.962;8.560;2023-02-01T18:24:11;100029.31;;;4.00;100.00
31096;BME280;17749;51.962;8.560;2023-02-01T18:26:38;100020.59;;;3.94;100.00
31096;BME280;17749;51.962;8.560;2023-02-01T18:29:05;100030.25;;;3.95;100.00
31096;BME280;17749;51.962;8.560;2023-02-01T18:31:40;100029.41;;;3.93;100.00
31096;BME280;17749;51.962;8.560;2023-02-01T18:34:10;100025.97;;;3.88;100.00
31096;BME280;17749;51.962;8.560;2023-02-01T18:36:42;100023.34;;;3.87;100.00
31096;BME280;17749;51.962;8.560;2023-02-01T18:39:09;100030.34;;;3.89;100.00
31096;BME280;17749;51.962;8.560;2023-02-01T18:41:37;100042.63;;;3.90;100.00
31096;BME280;17749;51.962;8.560;2023-02-01T18:44:04;100039.09;;;3.91;100.00
31096;BME280;17749;51.962;8.560;2023-02-01T18:46:31;100041.72;;;3.93;100.00
31096;BME280;17749;51.962;8.560;2023-02-01T18:48:58;100032.91;;;3.92;100.00
31096;BME280;17749;51.962;8.560;2023-02-01T18:51:25;100032.91;;;3.92;100.00
31096;BME280;17749;51.962;8.560;2023-02-01T18:53:51;100039.09;;;3.90;100.00
31096;BME280;17749;51.962;8.560;2023-02-01T18:56:19;100032.91;;;3.92;100.00
31096;BME280;17749;51.962;8.560;2023-02-01T18:59:04;100041.72;;;3.91;100.00
31096;BME280;17749;51.962;8.560;2023-02-01T19:01:33;100047.00;;;3.91;100.00
31096;BME280;17749;51.962;8.560;2023-02-01T19:04:03;100058.41;;;3.92;100.00
31096;BME280;17749;51.962;8.560;2023-02-01T19:06:34;100052.22;;;3.94;100.00
31096;BME280;17749;51.962;8.560;2023-02-01T19:09:02;100057.44;;;3.98;100.00
31096;BME280;17749;51.962;8.560;2023-02-01T19:11:29;100060.94;;;4.00;100.00
31096;BME280;17749;51.962;8.560;2023-02-01T19:13:58;100060.06;;;3.98;100.00
31096;BME280;17749;51.962;8.560;2023-02-01T19:16:25;100067.09;;;3.99;100.00
31096;BME280;17749;51.962;8.560;2023-02-01T19:18:53;100060.94;;;4.00;100.00
31096;BME280;17749;51.962;8.560;2023-02-01T19:21:20;100068.84;;;4.01;100.00
31096;BME280;17749;51.962;8.560;2023-02-01T19:23:47;100070.56;;;4.02;100.00
31096;BME280;17749;51.962;8.560;2023-02-01T19:26:16;100074.06;;;4.04;100.00
31096;BME280;17749;51.962;8.560;2023-02-01T19:28:43;100075.78;;;4.05;100.00
31096;BME280;17749;51.962;8.560;2023-02-01T19:31:16;100076.69;;;4.04;100.00
31096;BME280;17749;51.962;8.560;2023-02-01T19:33:44;100074.00;;;4.09;100.00
31096;BME280;17749;51.962;8.560;2023-02-01T19:36:12;100083.63;;;4.10;100.00
31096;BME280;17749;51.962;8.560;2023-02-01T19:38:39;100085.38;;;4.11;100.00
31096;BME280;17749;51.962;8.560;2023-02-01T19:41:07;100085.38;;;4.11;100.00
31096;BME280;17749;51.962;8.560;2023-02-01T19:43:34;100088.00;;;4.11;100.00
31096;BME280;17749;51.962;8.560;2023-02-01T19:46:02;100083.59;;;4.13;100.00
31096;BME280;17749;51.962;8.560;2023-02-01T19:48:30;100080.09;;;4.11;100.00
31096;BME280;17749;51.962;8.560;2023-02-01T19:50:57;100094.06;;;4.16;100.00
31096;BME280;17749;51.962;8.560;2023-02-01T19:53:26;100090.56;;;4.17;100.00
31096;BME280;17749;51.962;8.560;2023-02-01T19:55:56;100087.03;;;4.18;100.00
31096;BME280;17749;51.962;8.560;2023-02-01T19:58:24;100076.50;;;4.18;100.00
31096;BME280;17749;51.962;8.560;2023-02-01T20:00:58;100084.34;;;4.23;100.00
31096;BME280;17749;51.962;8.560;2023-02-01T20:03:27;100079.94;;;4.22;100.00
31096;BME280;17749;51.962;8.560;2023-02-01T20:05:55;100076.38;;;4.24;100.00
31096;BME280;17749;51.962;8.560;2023-02-01T20:08:23;100076.44;;;4.21;100.00
31096;BME280;17749;51.962;8.560;2023-02-01T20:10:51;100083.41;;;4.25;100.00
31096;BME280;17749;51.962;8.560;2023-02-01T20:13:19;100081.66;;;4.24;100.00
31096;BME280;17749;51.962;8.560;2023-02-01T20:15:46;100074.66;;;4.25;100.00
31096;BME280;17749;51.962;8.560;2023-02-01T20:18:14;100077.31;;;4.22;100.00
31096;BME280;17749;51.962;8.560;2023-02-01T20:20:41;100067.72;;;4.16;100.00
31096;BME280;17749;51.962;8.560;2023-02-01T20:23:09;100080.84;;;4.21;100.00
31096;BME280;17749;51.962;8.560;2023-02-01T20:25:36;100081.75;;;4.18;100.00
31096;BME280;17749;51.962;8.560;2023-02-01T20:28:04;100085.31;;;4.17;100.00
31096;BME280;17749;51.962;8.560;2023-02-01T20:30:32;100091.41;;;4.19;100.00
31096;BME280;17749;51.962;8.560;2023-02-01T20:33:06;100087.06;;;4.15;100.00
31096;BME280;17749;51.962;8.560;2023-02-01T20:35:33;100081.00;;;4.11;100.00
31096;BME280;17749;51.962;8.560;2023-02-01T20:38:03;100088.00;;;4.12;100.00
31096;BME280;17749;51.962;8.560;2023-02-01T20:40:40;100092.47;;;4.06;100.00
31096;BME280;17749;51.962;8.560;2023-02-01T20:43:08;100082.84;;;4.03;100.00
31096;BME280;17749;51.962;8.560;2023-02-01T20:45:42;100093.34;;;4.06;100.00
31096;BME280;17749;51.962;8.560;2023-02-01T20:48:11;100090.72;;;4.05;100.00
31096;BME280;17749;51.962;8.560;2023-02-01T20:50:38;100084.69;;;3.97;100.00
31096;BME280;17749;51.962;8.560;2023-02-01T20:53:06;100091.69;;;3.99;100.00
31096;BME280;17749;51.962;8.560;2023-02-01T20:55:38;100080.28;;;3.99;100.00
31096;BME280;17749;51.962;8.560;2023-02-01T20:58:06;100084.75;;;3.93;100.00
31096;BME280;17749;51.962;8.560;2023-02-01T21:00:33;100097.78;;;4.03;100.00
31096;BME280;17749;51.962;8.560;2023-02-01T21:03:01;100096.09;;;3.97;100.00
31096;BME280;17749;51.962;8.560;2023-02-01T21:05:30;100090.84;;;3.97;100.00
31096;BME280;17749;51.962;8.560;2023-02-01T21:08:07;100096.09;;;3.99;100.00
31096;BME280;17749;51.962;8.560;2023-02-01T21:10:38;100096.09;;;3.95;100.00
31096;BME280;17749;51.962;8.560;2023-02-01T21:13:06;100102.28;;;3.96;100.00
31096;BME280;17749;51.962;8.560;2023-02-01T21:16:07;100103.19;;;3.93;100.00
31096;BME280;17749;51.962;8.560;2023-02-01T21:18:34;100114.56;;;3.95;100.00
31096;BME280;17749;51.962;8.560;2023-02-01T21:21:12;100105.81;;;3.93;100.00